sensor_id;sensor_type;location;lat;lon;timestamp;P1;durP1;ratioP1;P2;durP2;ratioP2
49153;SDS011;49455;52.252;9.124;2023-04-15T00:01:51;11.35;;;7.93;;
49153;SDS011;49455;52.252;9.124;2023-04-15T00:06:51;12.88;;;7.93;;
49153;SDS011;49455;52.252;9.124;2023-04-15T00:11:52;9.95;;;7.68;;
49153;SDS011;49455;52.252;9.124;2023-04-15T00:16:53;9.57;;;7.13;;
49153;SDS011;49455;52.252;9.124;2023-04-15T00:21:53;11.43;;;7.45;;
49153;SDS011;49455;52.252;9.124;2023-04-15T00:26:53;11.15;;;6.93;;
49153;SDS011;49455;52.252;9.124;2023-04-15T00:31:54;9.82;;;6.68;;
49153;SDS011;49455;52.252;9.124;2023-04-15T00:36:54;19.95;;;8.32;;
49153;SDS011;49455;52.252;9.124;2023-04-15T00:41:55;10.45;;;7.65;;
49153;SDS011;49455;52.252;9.124;2023-04-15T00:46:56;12.18;;;8.70;;
49153;SDS011;49455;52.252;9.124;2023-04-15T00:51:57;16.63;;;8.65;;
49153;SDS011;49455;52.252;9.124;2023-04-15T00:56:57;11.80;;;8.52;;
49153;SDS011;49455;52.252;9.124;2023-04-15T01:01:58;11.35;;;8.25;;
49153;SDS011;49455;52.252;9.124;2023-04-15T01:06:59;10.57;;;8.43;;
49153;SDS011;49455;52.252;9.124;2023-04-15T01:11:59;12.20;;;8.40;;
49153;SDS011;49455;52.252;9.124;2023-04-15T01:17:00;13.05;;;9.60;;
49153;SDS011;49455;52.252;9.124;2023-04-15T01:22:01;14.63;;;10.15;;
49153;SDS011;49455;52.252;9.124;2023-04-15T01:27:04;15.40;;;10.25;;
49153;SDS011;49455;52.252;9.124;2023-04-15T01:32:04;13.00;;;10.10;;
49153;SDS011;49455;52.252;9.124;2023-04-15T01:37:05;12.25;;;9.95;;
49153;SDS011;49455;52.252;9.124;2023-04-15T01:42:05;16.60;;;10.82;;
49153;SDS011;49455;52.252;9.124;2023-04-15T01:47:06;17.90;;;10.43;;
49153;SDS011;49455;52.252;9.124;2023-04-15T01:52:06;16.08;;;12.20;;
49153;SDS011;49455;52.252;9.124;2023-04-15T01:57:07;14.18;;;10.20;;
49153;SDS011;49455;52.252;9.124;2023-04-15T02:02:08;15.75;;;11.70;;
49153;SDS011;49455;52.252;9.124;2023-04-15T02:07:08;18.08;;;11.55;;
49153;SDS011;49455;52.252;9.124;2023-04-15T02:12:09;18.25;;;11.85;;
49153;SDS011;49455;52.252;9.124;2023-04-15T02:17:09;17.92;;;10.98;;
49153;SDS011;49455;52.252;9.124;2023-04-15T02:22:09;16.17;;;12.00;;
49153;SDS011;49455;52.252;9.124;2023-04-15T02:27:12;15.60;;;11.15;;
49153;SDS011;49455;52.252;9.124;2023-04-15T02:32:16;18.30;;;12.05;;
49153;SDS011;49455;52.252;9.124;2023-04-15T02:37:16;17.80;;;12.07;;
49153;SDS011;49455;52.252;9.124;2023-04-15T02:42:16;17.30;;;12.02;;
49153;SDS011;49455;52.252;9.124;2023-04-15T02:47:17;17.90;;;11.57;;
49153;SDS011;49455;52.252;9.124;2023-04-15T02:52:17;17.15;;;11.85;;
49153;SDS011;49455;52.252;9.124;2023-04-15T02:57:18;17.38;;;12.10;;
49153;SDS011;49455;52.252;9.124;2023-04-15T03:02:18;16.17;;;10.75;;
49153;SDS011;49455;52.252;9.124;2023-04-15T03:07:19;17.55;;;11.18;;
49153;SDS011;49455;52.252;9.124;2023-04-15T03:12:19;18.98;;;11.57;;
49153;SDS011;49455;52.252;9.124;2023-04-15T03:17:20;14.95;;;11.18;;
49153;SDS011;49455;52.252;9.124;2023-04-15T03:22:20;16.40;;;12.02;;
49153;SDS011;49455;52.252;9.124;2023-04-15T03:27:21;19.05;;;12.75;;
49153;SDS011;49455;52.252;9.124;2023-04-15T03:32:22;18.35;;;12.35;;
49153;SDS011;49455;52.252;9.124;2023-04-15T03:37:23;19.25;;;13.38;;
49153;SDS011;49455;52.252;9.124;2023-04-15T03:42:23;21.73;;;14.25;;
49153;SDS011;49455;52.252;9.124;2023-04-15T03:47:23;20.98;;;13.98;;
49153;SDS011;49455;52.252;9.124;2023-04-15T03:52:24;21.42;;;15.23;;
49153;SDS011;49455;52.252;9.124;2023-04-15T03:57:24;18.40;;;13.57;;
49153;SDS011;49455;52.252;9.124;2023-04-15T04:02:24;21.85;;;14.35;;
49153;SDS011;49455;52.252;9.124;2023-04-15T04:07:25;19.77;;;14.32;;
49153;SDS011;49455;52.252;9.124;2023-04-15T04:12:25;29.20;;;20.77;;
49153;SDS011;49455;52.252;9.124;2023-04-15T04:17:26;23.05;;;14.32;;
49153;SDS011;49455;52.252;9.124;2023-04-15T04:22:26;25.30;;;18.33;;
49153;SDS011;49455;52.252;9.124;2023-04-15T04:27:26;20.58;;;16.10;;
49153;SDS011;49455;52.252;9.124;2023-04-15T04:32:27;26.27;;;15.02;;
49153;SDS011;49455;52.252;9.124;2023-04-15T04:37:27;31.05;;;25.80;;
49153;SDS011;49455;52.252;9.124;2023-04-15T04:42:28;26.25;;;17.17;;
49153;SDS011;49455;52.252;9.124;2023-04-15T04:47:28;27.00;;;18.42;;
49153;SDS011;49455;52.252;9.124;2023-04-15T04:52:28;30.65;;;19.75;;
49153;SDS011;49455;52.252;9.124;2023-04-15T04:57:29;27.27;;;17.65;;
49153;SDS011;49455;52.252;9.124;2023-04-15T05:02:29;33.72;;;26.23;;
49153;SDS011;49455;52.252;9.124;2023-04-15T05:07:30;29.13;;;18.53;;
49153;SDS011;49455;52.252;9.124;2023-04-15T05:12:30;29.35;;;19.15;;
49153;SDS011;49455;52.252;9.124;2023-04-15T05:17:30;33.97;;;20.23;;
49153;SDS011;49455;52.252;9.124;2023-04-15T05:22:31;33.25;;;19.77;;
49153;SDS011;49455;52.252;9.124;2023-04-15T05:27:31;41.08;;;21.80;;
49153;SDS011;49455;52.252;9.124;2023-04-15T05:32:32;36.22;;;22.48;;
49153;SDS011;49455;52.252;9.124;2023-04-15T05:37:32;43.78;;;25.00;;
49153;SDS011;49455;52.252;9.124;2023-04-15T05:42:33;39.13;;;23.25;;
49153;SDS011;49455;52.252;9.124;2023-04-15T05:47:34;38.37;;;22.17;;
49153;SDS011;49455;52.252;9.124;2023-04-15T05:52:35;41.10;;;23.07;;
49153;SDS011;49455;52.252;9.124;2023-04-15T05:57:35;38.63;;;22.13;;
49153;SDS011;49455;52.252;9.124;2023-04-15T06:02:36;36.58;;;21.80;;
49153;SDS011;49455;52.252;9.124;2023-04-15T06:07:37;33.97;;;20.45;;
49153;SDS011;49455;52.252;9.124;2023-04-15T06:12:37;37.00;;;20.38;;
49153;SDS011;49455;52.252;9.124;2023-04-15T06:17:38;37.35;;;21.42;;
49153;SDS011;49455;52.252;9.124;2023-04-15T06:22:38;38.08;;;22.13;;
49153;SDS011;49455;52.252;9.124;2023-04-15T06:27:38;37.92;;;21.23;;
49153;SDS011;49455;52.252;9.124;2023-04-15T06:32:39;44.78;;;25.27;;
49153;SDS011;49455;52.252;9.124;2023-04-15T06:37:39;38.22;;;21.15;;
49153;SDS011;49455;52.252;9.124;2023-04-15T06:42:43;34.15;;;19.58;;
49153;SDS011;49455;52.252;9.124;2023-04-15T06:47:43;52.70;;;23.35;;
49153;SDS011;49455;52.252;9.124;2023-04-15T06:52:43;65.68;;;26.50;;
49153;SDS011;49455;52.252;9.124;2023-04-15T06:57:44;42.80;;;25.30;;
49153;SDS011;49455;52.252;9.124;2023-04-15T07:02:44;76.15;;;28.38;;
49153;SDS011;49455;52.252;9.124;2023-04-15T07:07:45;43.00;;;25.63;;
49153;SDS011;49455;52.252;9.124;2023-04-15T07:12:45;74.75;;;26.08;;
49153;SDS011;49455;52.252;9.124;2023-04-15T07:17:47;57.67;;;25.77;;
49153;SDS011;49455;52.252;9.124;2023-04-15T07:22:48;64.28;;;25.77;;
49153;SDS011;49455;52.252;9.124;2023-04-15T07:27:51;52.13;;;24.48;;
49153;SDS011;49455;52.252;9.124;2023-04-15T07:32:52;66.77;;;24.20;;
49153;SDS011;49455;52.252;9.124;2023-04-15T07:37:53;480.17;;;40.90;;
49153;SDS011;49455;52.252;9.124;2023-04-15T07:42:55;49.55;;;23.25;;
49153;SDS011;49455;52.252;9.124;2023-04-15T07:47:55;39.78;;;21.65;;
49153;SDS011;49455;52.252;9.124;2023-04-15T07:52:56;51.88;;;20.70;;
49153;SDS011;49455;52.252;9.124;2023-04-15T07:57:56;103.03;;;22.95;;
49153;SDS011;49455;52.252;9.124;2023-04-15T08:02:59;51.75;;;20.50;;
49153;SDS011;49455;52.252;9.124;2023-04-15T08:08:00;32.17;;;18.00;;
49153;SDS011;49455;52.252;9.124;2023-04-15T08:13:00;99.90;;;21.88;;
49153;SDS011;49455;52.252;9.124;2023-04-15T08:18:00;115.80;;;23.13;;
49153;SDS011;49455;52.252;9.124;2023-04-15T08:23:01;37.40;;;21.15;;
49153;SDS011;49455;52.252;9.124;2023-04-15T08:28:03;89.05;;;22.38;;
49153;SDS011;49455;52.252;9.124;2023-04-15T08:38:04;134.88;;;24.88;;
49153;SDS011;49455;52.252;9.124;2023-04-15T08:43:04;87.68;;;21.83;;
49153;SDS011;49455;52.252;9.124;2023-04-15T08:48:08;71.85;;;22.15;;
49153;SDS011;49455;52.252;9.124;2023-04-15T08:53:09;87.33;;;25.13;;
49153;SDS011;49455;52.252;9.124;2023-04-15T08:58:10;114.82;;;24.08;;
49153;SDS011;49455;52.252;9.124;2023-04-15T09:03:11;33.92;;;20.27;;
49153;SDS011;49455;52.252;9.124;2023-04-15T09:08:12;40.05;;;20.73;;
49153;SDS011;49455;52.252;9.124;2023-04-15T09:13:13;54.95;;;23.90;;
49153;SDS011;49455;52.252;9.124;2023-04-15T09:18:19;45.60;;;22.73;;
49153;SDS011;49455;52.252;9.124;2023-04-15T09:23:26;37.67;;;21.73;;
49153;SDS011;49455;52.252;9.124;2023-04-15T09:28:27;38.47;;;23.00;;
49153;SDS011;49455;52.252;9.124;2023-04-15T09:33:28;37.92;;;22.25;;
49153;SDS011;49455;52.252;9.124;2023-04-15T09:38:29;44.83;;;21.75;;
49153;SDS011;49455;52.252;9.124;2023-04-15T09:43:37;39.97;;;22.80;;
49153;SDS011;49455;52.252;9.124;2023-04-15T09:48:38;37.45;;;22.10;;
49153;SDS011;49455;52.252;9.124;2023-04-15T09:53:38;46.53;;;23.52;;
49153;SDS011;49455;52.252;9.124;2023-04-15T09:58:38;36.88;;;21.50;;
49153;SDS011;49455;52.252;9.124;2023-04-15T10:03:40;35.63;;;21.20;;
49153;SDS011;49455;52.252;9.124;2023-04-15T10:08:41;34.17;;;20.90;;
49153;SDS011;49455;52.252;9.124;2023-04-15T10:13:42;34.20;;;21.50;;
49153;SDS011;49455;52.252;9.124;2023-04-15T10:18:43;29.98;;;18.75;;
49153;SDS011;49455;52.252;9.124;2023-04-15T10:23:44;27.65;;;18.33;;
49153;SDS011;49455;52.252;9.124;2023-04-15T10:28:45;27.80;;;18.35;;
49153;SDS011;49455;52.252;9.124;2023-04-15T10:33:46;25.90;;;17.23;;
49153;SDS011;49455;52.252;9.124;2023-04-15T10:38:48;24.27;;;16.25;;
49153;SDS011;49455;52.252;9.124;2023-04-15T10:48:58;19.60;;;13.27;;
49153;SDS011;49455;52.252;9.124;2023-04-15T10:54:41;22.00;;;15.15;;
49153;SDS011;49455;52.252;9.124;2023-04-15T10:59:35;19.83;;;13.60;;
49153;SDS011;49455;52.252;9.124;2023-04-15T11:04:50;19.27;;;13.75;;
49153;SDS011;49455;52.252;9.124;2023-04-15T11:09:50;18.23;;;12.93;;
49153;SDS011;49455;52.252;9.124;2023-04-15T11:14:50;16.98;;;12.27;;
49153;SDS011;49455;52.252;9.124;2023-04-15T11:19:51;14.82;;;10.88;;
49153;SDS011;49455;52.252;9.124;2023-04-15T11:24:51;16.42;;;12.40;;
49153;SDS011;49455;52.252;9.124;2023-04-15T11:29:52;17.42;;;12.65;;
49153;SDS011;49455;52.252;9.124;2023-04-15T11:34:52;19.05;;;13.38;;
49153;SDS011;49455;52.252;9.124;2023-04-15T11:39:52;19.20;;;13.85;;
49153;SDS011;49455;52.252;9.124;2023-04-15T11:55:20;22.58;;;14.25;;
49153;SDS011;49455;52.252;9.124;2023-04-15T12:00:22;21.30;;;14.90;;
49153;SDS011;49455;52.252;9.124;2023-04-15T12:05:23;28.33;;;17.73;;
49153;SDS011;49455;52.252;9.124;2023-04-15T12:10:23;27.77;;;14.13;;
49153;SDS011;49455;52.252;9.124;2023-04-15T12:15:24;103.97;;;18.83;;
49153;SDS011;49455;52.252;9.124;2023-04-15T12:20:24;46.55;;;18.80;;
49153;SDS011;49455;52.252;9.124;2023-04-15T12:25:34;118.82;;;23.05;;
49153;SDS011;49455;52.252;9.124;2023-04-15T12:30:34;39.78;;;20.05;;
49153;SDS011;49455;52.252;9.124;2023-04-15T12:35:35;238.50;;;28.35;;
49153;SDS011;49455;52.252;9.124;2023-04-15T12:40:35;138.07;;;26.98;;
49153;SDS011;49455;52.252;9.124;2023-04-15T12:45:36;209.27;;;29.45;;
49153;SDS011;49455;52.252;9.124;2023-04-15T12:50:36;209.05;;;25.90;;
49153;SDS011;49455;52.252;9.124;2023-04-15T12:55:36;678.70;;;54.13;;
49153;SDS011;49455;52.252;9.124;2023-04-15T13:00:37;340.85;;;37.75;;
49153;SDS011;49455;52.252;9.124;2023-04-15T13:05:38;266.98;;;34.40;;
49153;SDS011;49455;52.252;9.124;2023-04-15T13:10:38;737.80;;;56.45;;
49153;SDS011;49455;52.252;9.124;2023-04-15T13:15:39;796.38;;;65.78;;
49153;SDS011;49455;52.252;9.124;2023-04-15T13:20:39;390.15;;;43.47;;
49153;SDS011;49455;52.252;9.124;2023-04-15T13:25:39;576.00;;;55.22;;
49153;SDS011;49455;52.252;9.124;2023-04-15T13:30:40;338.92;;;39.65;;
49153;SDS011;49455;52.252;9.124;2023-04-15T13:35:40;313.85;;;42.28;;
49153;SDS011;49455;52.252;9.124;2023-04-15T13:40:41;789.85;;;71.55;;
49153;SDS011;49455;52.252;9.124;2023-04-15T13:45:41;593.13;;;55.88;;
49153;SDS011;49455;52.252;9.124;2023-04-15T13:50:42;465.92;;;47.78;;
49153;SDS011;49455;52.252;9.124;2023-04-15T13:55:42;756.55;;;61.45;;
49153;SDS011;49455;52.252;9.124;2023-04-15T14:00:43;448.95;;;49.58;;
49153;SDS011;49455;52.252;9.124;2023-04-15T14:05:43;727.92;;;69.38;;
49153;SDS011;49455;52.252;9.124;2023-04-15T14:10:44;1015.17;;;84.15;;
49153;SDS011;49455;52.252;9.124;2023-04-15T14:15:44;351.13;;;40.72;;
49153;SDS011;49455;52.252;9.124;2023-04-15T14:20:45;1093.85;;;87.07;;
49153;SDS011;49455;52.252;9.124;2023-04-15T14:25:49;613.63;;;58.67;;
49153;SDS011;49455;52.252;9.124;2023-04-15T14:30:49;773.70;;;69.67;;
49153;SDS011;49455;52.252;9.124;2023-04-15T14:35:50;837.47;;;68.22;;
49153;SDS011;49455;52.252;9.124;2023-04-15T14:40:50;1068.18;;;86.25;;
49153;SDS011;49455;52.252;9.124;2023-04-15T14:45:51;1014.90;;;83.20;;
49153;SDS011;49455;52.252;9.124;2023-04-15T14:50:51;1111.80;;;87.65;;
49153;SDS011;49455;52.252;9.124;2023-04-15T14:55:52;1069.78;;;89.53;;
49153;SDS011;49455;52.252;9.124;2023-04-15T15:00:52;1091.57;;;88.50;;
49153;SDS011;49455;52.252;9.124;2023-04-15T15:05:53;694.50;;;59.35;;
49153;SDS011;49455;52.252;9.124;2023-04-15T15:10:53;215.60;;;45.38;;
49153;SDS011;49455;52.252;9.124;2023-04-15T15:15:54;841.13;;;81.07;;
49153;SDS011;49455;52.252;9.124;2023-04-15T15:20:55;151.07;;;46.50;;
49153;SDS011;49455;52.252;9.124;2023-04-15T15:25:55;97.55;;;42.63;;
49153;SDS011;49455;52.252;9.124;2023-04-15T15:30:57;96.30;;;44.63;;
49153;SDS011;49455;52.252;9.124;2023-04-15T15:35:57;102.13;;;45.30;;
49153;SDS011;49455;52.252;9.124;2023-04-15T15:40:58;94.85;;;44.85;;
49153;SDS011;49455;52.252;9.124;2023-04-15T15:45:58;95.15;;;45.80;;
49153;SDS011;49455;52.252;9.124;2023-04-15T15:50:58;97.78;;;46.60;;
49153;SDS011;49455;52.252;9.124;2023-04-15T15:55:59;99.00;;;50.80;;
49153;SDS011;49455;52.252;9.124;2023-04-15T16:01:00;88.45;;;45.78;;
49153;SDS011;49455;52.252;9.124;2023-04-15T16:06:00;96.97;;;46.80;;
49153;SDS011;49455;52.252;9.124;2023-04-15T16:11:01;88.78;;;45.10;;
49153;SDS011;49455;52.252;9.124;2023-04-15T16:16:01;97.68;;;48.70;;
49153;SDS011;49455;52.252;9.124;2023-04-15T16:21:02;97.15;;;47.28;;
49153;SDS011;49455;52.252;9.124;2023-04-15T16:26:02;100.40;;;48.80;;
49153;SDS011;49455;52.252;9.124;2023-04-15T16:31:03;95.30;;;47.88;;
49153;SDS011;49455;52.252;9.124;2023-04-15T16:36:03;98.32;;;49.47;;
49153;SDS011;49455;52.252;9.124;2023-04-15T16:41:04;93.53;;;48.85;;
49153;SDS011;49455;52.252;9.124;2023-04-15T16:46:04;92.22;;;47.67;;
49153;SDS011;49455;52.252;9.124;2023-04-15T16:51:05;95.80;;;49.03;;
49153;SDS011;49455;52.252;9.124;2023-04-15T16:56:05;93.03;;;45.40;;
49153;SDS011;49455;52.252;9.124;2023-04-15T17:01:06;84.75;;;44.25;;
49153;SDS011;49455;52.252;9.124;2023-04-15T17:06:07;79.32;;;43.67;;
49153;SDS011;49455;52.252;9.124;2023-04-15T17:11:07;96.53;;;47.78;;
49153;SDS011;49455;52.252;9.124;2023-04-15T17:16:08;98.28;;;46.83;;
49153;SDS011;49455;52.252;9.124;2023-04-15T17:21:08;87.22;;;45.60;;
49153;SDS011;49455;52.252;9.124;2023-04-15T17:26:09;83.32;;;45.95;;
49153;SDS011;49455;52.252;9.124;2023-04-15T17:31:09;87.90;;;45.92;;
49153;SDS011;49455;52.252;9.124;2023-04-15T17:36:10;91.78;;;44.33;;
49153;SDS011;49455;52.252;9.124;2023-04-15T17:41:10;91.95;;;44.90;;
49153;SDS011;49455;52.252;9.124;2023-04-15T17:46:11;81.80;;;42.05;;
49153;SDS011;49455;52.252;9.124;2023-04-15T17:51:11;88.35;;;42.35;;
49153;SDS011;49455;52.252;9.124;2023-04-15T17:56:12;86.95;;;42.10;;
49153;SDS011;49455;52.252;9.124;2023-04-15T18:01:12;83.38;;;41.92;;
49153;SDS011;49455;52.252;9.124;2023-04-15T18:06:12;86.38;;;42.58;;
49153;SDS011;49455;52.252;9.124;2023-04-15T18:11:13;83.63;;;40.88;;
49153;SDS011;49455;52.252;9.124;2023-04-15T18:16:13;77.40;;;40.22;;
49153;SDS011;49455;52.252;9.124;2023-04-15T18:21:14;97.20;;;45.60;;
49153;SDS011;49455;52.252;9.124;2023-04-15T18:26:14;94.70;;;42.72;;
49153;SDS011;49455;52.252;9.124;2023-04-15T18:31:15;84.05;;;42.60;;
49153;SDS011;49455;52.252;9.124;2023-04-15T18:36:15;96.18;;;45.38;;
49153;SDS011;49455;52.252;9.124;2023-04-15T18:41:16;89.90;;;45.50;;
49153;SDS011;49455;52.252;9.124;2023-04-15T18:46:16;100.45;;;47.33;;
49153;SDS011;49455;52.252;9.124;2023-04-15T18:51:17;102.18;;;48.08;;
49153;SDS011;49455;52.252;9.124;2023-04-15T18:56:17;110.13;;;50.00;;
49153;SDS011;49455;52.252;9.124;2023-04-15T19:01:17;106.32;;;48.75;;
49153;SDS011;49455;52.252;9.124;2023-04-15T19:06:18;119.78;;;52.88;;
49153;SDS011;49455;52.252;9.124;2023-04-15T19:11:18;108.35;;;51.92;;
49153;SDS011;49455;52.252;9.124;2023-04-15T19:16:19;124.50;;;53.95;;
49153;SDS011;49455;52.252;9.124;2023-04-15T19:21:19;113.93;;;52.85;;
49153;SDS011;49455;52.252;9.124;2023-04-15T19:26:20;131.35;;;55.47;;
49153;SDS011;49455;52.252;9.124;2023-04-15T19:31:20;123.50;;;55.80;;
49153;SDS011;49455;52.252;9.124;2023-04-15T19:36:21;162.38;;;60.35;;
49153;SDS011;49455;52.252;9.124;2023-04-15T19:41:21;120.95;;;55.50;;
49153;SDS011;49455;52.252;9.124;2023-04-15T19:46:22;136.00;;;59.28;;
49153;SDS011;49455;52.252;9.124;2023-04-15T19:51:23;139.23;;;58.10;;
49153;SDS011;49455;52.252;9.124;2023-04-15T19:56:24;130.80;;;57.87;;
49153;SDS011;49455;52.252;9.124;2023-04-15T20:01:24;120.30;;;58.17;;
49153;SDS011;49455;52.252;9.124;2023-04-15T20:06:26;176.23;;;61.83;;
49153;SDS011;49455;52.252;9.124;2023-04-15T20:11:26;188.52;;;66.15;;
49153;SDS011;49455;52.252;9.124;2023-04-15T20:16:27;125.00;;;58.13;;
49153;SDS011;49455;52.252;9.124;2023-04-15T20:21:27;183.52;;;62.35;;
49153;SDS011;49455;52.252;9.124;2023-04-15T20:26:28;227.02;;;68.60;;
49153;SDS011;49455;52.252;9.124;2023-04-15T20:31:29;118.03;;;60.57;;
49153;SDS011;49455;52.252;9.124;2023-04-15T20:36:29;166.15;;;63.20;;
49153;SDS011;49455;52.252;9.124;2023-04-15T20:41:30;158.90;;;64.20;;
49153;SDS011;49455;52.252;9.124;2023-04-15T20:46:30;145.30;;;61.20;;
49153;SDS011;49455;52.252;9.124;2023-04-15T20:51:31;231.98;;;65.35;;
49153;SDS011;49455;52.252;9.124;2023-04-15T20:56:31;166.70;;;63.95;;
49153;SDS011;49455;52.252;9.124;2023-04-15T21:01:32;204.93;;;67.25;;
49153;SDS011;49455;52.252;9.124;2023-04-15T21:06:33;120.40;;;59.30;;
49153;SDS011;49455;52.252;9.124;2023-04-15T21:11:34;121.75;;;59.15;;
49153;SDS011;49455;52.252;9.124;2023-04-15T21:16:34;148.48;;;62.35;;
49153;SDS011;49455;52.252;9.124;2023-04-15T21:21:34;264.08;;;63.83;;
49153;SDS011;49455;52.252;9.124;2023-04-15T21:26:35;368.02;;;74.93;;
49153;SDS011;49455;52.252;9.124;2023-04-15T21:31:35;122.13;;;61.42;;
49153;SDS011;49455;52.252;9.124;2023-04-15T21:36:36;141.15;;;59.33;;
49153;SDS011;49455;52.252;9.124;2023-04-15T21:41:37;177.55;;;62.85;;
49153;SDS011;49455;52.252;9.124;2023-04-15T21:46:37;137.82;;;63.88;;
49153;SDS011;49455;52.252;9.124;2023-04-15T21:51:37;132.32;;;62.78;;
49153;SDS011;49455;52.252;9.124;2023-04-15T21:56:38;196.98;;;68.80;;
49153;SDS011;49455;52.252;9.124;2023-04-15T22:01:38;118.10;;;61.20;;
49153;SDS011;49455;52.252;9.124;2023-04-15T22:06:39;106.40;;;61.95;;
49153;SDS011;49455;52.252;9.124;2023-04-15T22:11:39;200.63;;;65.93;;
49153;SDS011;49455;52.252;9.124;2023-04-15T22:16:39;123.32;;;61.30;;
49153;SDS011;49455;52.252;9.124;2023-04-15T22:21:40;167.65;;;65.25;;
49153;SDS011;49455;52.252;9.124;2023-04-15T22:26:40;111.22;;;58.67;;
49153;SDS011;49455;52.252;9.124;2023-04-15T22:31:41;202.23;;;65.25;;
49153;SDS011;49455;52.252;9.124;2023-04-15T22:36:41;228.45;;;68.15;;
49153;SDS011;49455;52.252;9.124;2023-04-15T22:41:42;102.22;;;56.85;;
49153;SDS011;49455;52.252;9.124;2023-04-15T22:46:43;135.57;;;62.53;;
49153;SDS011;49455;52.252;9.124;2023-04-15T22:51:43;101.13;;;56.90;;
49153;SDS011;49455;52.252;9.124;2023-04-15T22:56:44;108.03;;;58.95;;
49153;SDS011;49455;52.252;9.124;2023-04-15T23:01:44;102.97;;;56.67;;
49153;SDS011;49455;52.252;9.124;2023-04-15T23:06:45;114.53;;;56.80;;
49153;SDS011;49455;52.252;9.124;2023-04-15T23:11:45;92.85;;;53.40;;
49153;SDS011;49455;52.252;9.124;2023-04-15T23:16:46;180.70;;;62.23;;
49153;SDS011;49455;52.252;9.124;2023-04-15T23:21:47;313.67;;;64.25;;
49153;SDS011;49455;52.252;9.124;2023-04-15T23:26:47;188.68;;;57.90;;
49153;SDS011;49455;52.252;9.124;2023-04-15T23:31:47;243.43;;;62.90;;
49153;SDS011;49455;52.252;9.124;2023-04-15T23:36:48;125.43;;;55.97;;
49153;SDS011;49455;52.252;9.124;2023-04-15T23:41:48;92.18;;;53.60;;
49153;SDS011;49455;52.252;9.124;2023-04-15T23:46:49;95.70;;;54.13;;
49153;SDS011;49455;52.252;9.124;2023-04-15T23:51:49;98.13;;;54.22;;
49153;SDS011;49455;52.252;9.124;2023-04-15T23:56:49;98.60;;;54.97;;
